createdAt,value
2023-02-18T00:01:39.445Z,2.00
2023-02-18T00:04:06.999Z,2.00
2023-02-18T00:06:35.759Z,2.17
2023-02-18T00:09:04.180Z,2.60
2023-02-18T00:11:33.044Z,3.10
2023-02-18T00:14:01.448Z,3.47
2023-02-18T00:16:29.845Z,2.40
2023-02-18T00:19:00.882Z,2.33
2023-02-18T00:21:28.669Z,2.63
2023-02-18T00:23:56.166Z,2.53
2023-02-18T00:26:23.582Z,2.50
2023-02-18T00:28:54.637Z,2.67
2023-02-18T00:31:24.500Z,2.27
2023-02-18T00:33:54.171Z,2.13
2023-02-18T00:36:22.347Z,2.50
2023-02-18T00:38:50.812Z,2.93
2023-02-18T00:41:18.869Z,2.13
2023-02-18T00:43:47.493Z,3.17
2023-02-18T00:46:15.005Z,3.03
2023-02-18T00:48:42.817Z,2.80
2023-02-18T00:51:11.240Z,2.33
2023-02-18T00:53:42.278Z,3.23
2023-02-18T00:56:10.309Z,2.50
2023-02-18T00:58:38.320Z,3.27
2023-02-18T01:01:07.622Z,3.07
2023-02-18T01:03:35.950Z,3.63
2023-02-18T01:06:03.612Z,3.90
2023-02-18T01:08:33.548Z,3.50
2023-02-18T01:11:01.115Z,3.77
2023-02-18T01:13:29.206Z,3.67
2023-02-18T01:15:56.649Z,3.77
2023-02-18T01:18:25.414Z,3.57
2023-02-18T01:20:52.795Z,3.60
2023-02-18T01:23:20.416Z,3.80
2023-02-18T01:25:49.454Z,3.23
2023-02-18T01:28:16.963Z,4.07
2023-02-18T01:30:44.533Z,4.37
2023-02-18T01:33:12.260Z,3.90
2023-02-18T01:35:40.890Z,4.53
2023-02-18T01:38:08.941Z,4.33
2023-02-18T01:40:36.815Z,4.67
2023-02-18T01:43:04.188Z,4.93
2023-02-18T01:45:34.865Z,4.53
2023-02-18T01:48:16.713Z,4.00
2023-02-18T01:50:45.810Z,4.83
2023-02-18T01:53:15.872Z,5.07
2023-02-18T01:55:43.579Z,5.00
2023-02-18T01:58:12.154Z,4.33
2023-02-18T02:00:39.782Z,4.00
2023-02-18T02:03:07.280Z,4.60
2023-02-18T02:05:35.108Z,5.17
2023-02-18T02:08:03.847Z,4.53
2023-02-18T02:10:46.586Z,4.70
2023-02-18T02:13:23.820Z,4.17
2023-02-18T02:15:59.054Z,4.73
2023-02-18T02:18:35.712Z,4.93
2023-02-18T02:21:18.332Z,4.57
2023-02-18T02:23:57.761Z,4.87
2023-02-18T02:26:43.943Z,4.90
2023-02-18T02:29:22.007Z,5.40
2023-02-18T02:32:15.134Z,4.80
2023-02-18T02:34:53.973Z,4.97
2023-02-18T02:37:44.312Z,4.70
2023-02-18T02:40:20.841Z,4.83
2023-02-18T02:43:07.429Z,5.07
2023-02-18T02:45:54.092Z,4.60
2023-02-18T02:48:38.660Z,5.60
2023-02-18T02:51:06.148Z,5.37
2023-02-18T02:53:36.036Z,4.83
2023-02-18T02:56:03.568Z,4.33
2023-02-18T02:58:31.744Z,5.17
2023-02-18T03:01:11.573Z,4.73
2023-02-18T03:03:57.838Z,3.80
2023-02-18T03:06:44.991Z,4.50
2023-02-18T03:09:18.441Z,4.63
2023-02-18T03:12:07.306Z,4.47
2023-02-18T03:14:54.513Z,3.93
2023-02-18T03:17:28.112Z,4.23
2023-02-18T03:20:01.221Z,4.03
2023-02-18T03:22:31.813Z,4.33
2023-02-18T03:25:01.952Z,4.07
2023-02-18T03:27:38.801Z,4.13
2023-02-18T03:30:26.674Z,3.40
2023-02-18T03:32:59.014Z,3.73
2023-02-18T03:35:28.465Z,3.23
2023-02-18T03:38:05.176Z,4.13
2023-02-18T03:40:32.761Z,3.83
2023-02-18T03:43:02.409Z,3.67
2023-02-18T03:45:29.747Z,3.43
2023-02-18T03:47:57.309Z,3.07
2023-02-18T03:50:24.858Z,4.17
2023-02-18T03:52:52.522Z,3.27
2023-02-18T03:55:21.222Z,2.90
2023-02-18T03:57:48.612Z,3.07
2023-02-18T04:00:16.071Z,2.97
2023-02-18T04:02:43.415Z,3.43
2023-02-18T04:05:10.963Z,3.70
2023-02-18T04:07:38.507Z,3.50
2023-02-18T04:10:06.611Z,2.90
2023-02-18T04:12:33.958Z,2.83
2023-02-18T04:15:01.400Z,3.27
2023-02-18T04:17:28.717Z,3.10
2023-02-18T04:19:56.036Z,3.47
2023-02-18T04:22:23.396Z,3.63
2023-02-18T04:24:50.725Z,2.90
2023-02-18T04:27:18.018Z,3.37
2023-02-18T04:29:45.469Z,3.83
2023-02-18T04:32:12.870Z,3.13
2023-02-18T04:34:40.322Z,3.50
2023-02-18T04:37:07.866Z,3.17
2023-02-18T04:39:35.299Z,3.87
2023-02-18T04:42:02.674Z,3.30
2023-02-18T04:44:30.050Z,3.50
2023-02-18T04:46:57.361Z,2.90
2023-02-18T04:49:24.709Z,3.47
2023-02-18T04:51:52.074Z,3.20
2023-02-18T04:54:19.542Z,2.93
2023-02-18T04:56:46.838Z,3.00
2023-02-18T04:59:14.310Z,3.30
2023-02-18T05:01:41.630Z,3.13
2023-02-18T05:04:09.124Z,3.00
2023-02-18T05:06:38.151Z,3.13
2023-02-18T05:09:05.782Z,2.97
2023-02-18T05:11:33.231Z,2.57
2023-02-18T05:14:00.492Z,2.67
2023-02-18T05:16:27.985Z,3.30
2023-02-18T05:18:55.270Z,3.23
2023-02-18T05:21:22.658Z,2.57
2023-02-18T05:23:50.040Z,2.70
2023-02-18T05:26:17.531Z,2.90
2023-02-18T05:28:44.982Z,2.53
2023-02-18T05:31:12.369Z,2.63
2023-02-18T05:33:39.963Z,3.00
2023-02-18T05:36:08.013Z,1.97
2023-02-18T05:38:35.525Z,2.80
2023-02-18T05:41:03.308Z,3.20
2023-02-18T05:43:30.610Z,2.77
2023-02-18T05:45:58.028Z,2.80
2023-02-18T05:48:25.505Z,2.10
2023-02-18T05:50:54.782Z,2.90
2023-02-18T05:53:22.160Z,2.17
2023-02-18T05:55:49.501Z,2.43
2023-02-18T05:58:17.104Z,2.40
2023-02-18T06:00:44.435Z,2.23
2023-02-18T06:03:11.805Z,2.63
2023-02-18T06:05:39.090Z,2.90
2023-02-18T06:08:06.390Z,2.60
2023-02-18T06:10:33.750Z,2.63
2023-02-18T06:13:02.428Z,2.93
2023-02-18T06:15:29.834Z,2.37
2023-02-18T06:17:57.154Z,2.80
2023-02-18T06:20:24.566Z,2.33
2023-02-18T06:22:51.959Z,2.80
2023-02-18T06:25:19.273Z,2.27
2023-02-18T06:27:46.680Z,2.70
2023-02-18T06:30:14.259Z,2.87
2023-02-18T06:32:41.711Z,2.27
2023-02-18T06:35:09.125Z,2.27
2023-02-18T06:37:36.471Z,2.53
2023-02-18T06:40:03.768Z,2.63
2023-02-18T06:42:31.083Z,2.43
2023-02-18T06:44:58.411Z,2.43
2023-02-18T06:47:25.882Z,2.67
2023-02-18T06:49:53.198Z,2.23
2023-02-18T06:52:20.604Z,2.50
2023-02-18T06:54:47.919Z,2.20
2023-02-18T06:57:15.407Z,2.20
2023-02-18T06:59:42.755Z,2.57
2023-02-18T07:02:11.719Z,2.00
2023-02-18T07:04:39.062Z,2.53
2023-02-18T07:07:06.399Z,2.20
2023-02-18T07:09:33.790Z,2.20
2023-02-18T07:12:01.147Z,2.30
2023-02-18T07:14:28.629Z,2.63
2023-02-18T07:16:56.088Z,2.23
2023-02-18T07:19:23.404Z,2.17
2023-02-18T07:21:50.862Z,2.47
2023-02-18T07:24:18.280Z,2.30
2023-02-18T07:26:45.549Z,2.67
2023-02-18T07:29:12.974Z,2.07
2023-02-18T07:31:40.318Z,2.30
2023-02-18T07:34:07.710Z,1.40
2023-02-18T07:36:35.081Z,2.33
2023-02-18T07:39:02.386Z,2.10
2023-02-18T07:41:30.213Z,1.90
2023-02-18T07:43:58.644Z,2.17
2023-02-18T07:46:26.277Z,1.60
2023-02-18T07:48:54.354Z,2.27
2023-02-18T07:51:21.798Z,2.10
2023-02-18T07:53:49.667Z,1.90
2023-02-18T07:56:18.478Z,1.60
2023-02-18T07:58:45.878Z,1.90
2023-02-18T08:01:15.086Z,1.90
2023-02-18T08:03:42.777Z,1.50
2023-02-18T08:06:15.799Z,1.67
2023-02-18T08:08:43.155Z,1.47
2023-02-18T08:11:18.916Z,1.80
2023-02-18T08:13:53.022Z,1.73
2023-02-18T08:16:21.434Z,1.50
2023-02-18T08:18:49.996Z,1.90
2023-02-18T08:21:23.483Z,1.70
2023-02-18T08:23:51.013Z,1.57
2023-02-18T08:26:21.169Z,1.73
2023-02-18T08:28:54.005Z,1.50
2023-02-18T08:31:23.239Z,1.43
2023-02-18T08:33:51.192Z,1.40
2023-02-18T08:36:29.519Z,1.53
2023-02-18T08:38:57.963Z,1.73
2023-02-18T08:41:25.361Z,1.33
2023-02-18T08:43:52.776Z,1.70
2023-02-18T08:46:25.291Z,1.47
2023-02-18T08:49:02.327Z,1.50
2023-02-18T08:51:30.063Z,1.37
2023-02-18T08:53:57.669Z,1.03
2023-02-18T08:56:25.044Z,1.50
2023-02-18T08:58:52.689Z,1.17
2023-02-18T09:01:21.026Z,1.57
2023-02-18T09:03:49.264Z,1.67
2023-02-18T09:06:19.777Z,1.10
2023-02-18T09:08:47.156Z,1.20
2023-02-18T09:11:14.785Z,1.30
2023-02-18T09:13:42.129Z,1.00
2023-02-18T09:16:12.417Z,1.83
2023-02-18T09:18:40.023Z,1.23
2023-02-18T09:21:09.498Z,1.53
2023-02-18T09:23:37.536Z,1.20
2023-02-18T09:26:05.782Z,1.47
2023-02-18T09:28:33.590Z,1.50
2023-02-18T09:31:05.573Z,1.67
2023-02-18T09:33:35.172Z,1.27
2023-02-18T09:36:02.756Z,1.50
2023-02-18T09:38:30.427Z,1.20
2023-02-18T09:40:58.797Z,1.23
2023-02-18T09:43:37.484Z,1.43
2023-02-18T09:46:07.146Z,1.37
2023-02-18T09:48:36.352Z,1.50
2023-02-18T09:51:04.086Z,1.40
2023-02-18T09:53:31.492Z,1.60
2023-02-18T09:56:00.895Z,1.50
2023-02-18T09:58:30.571Z,1.50
2023-02-18T10:01:17.018Z,1.67
2023-02-18T10:03:46.530Z,1.87
2023-02-18T10:06:18.914Z,1.27
2023-02-18T10:08:48.117Z,1.23
2023-02-18T10:11:23.606Z,1.57
2023-02-18T10:13:51.388Z,1.60
2023-02-18T10:16:22.295Z,2.00
2023-02-18T10:18:51.458Z,1.33
2023-02-18T10:21:21.401Z,1.23
2023-02-18T10:23:54.946Z,2.20
2023-02-18T10:26:25.160Z,1.47
2023-02-18T10:28:52.670Z,1.23
2023-02-18T10:31:24.671Z,1.30
2023-02-18T10:33:55.208Z,1.87
2023-02-18T10:36:27.546Z,1.80
2023-02-18T10:39:03.647Z,1.87
2023-02-18T10:41:34.043Z,1.40
2023-02-18T10:44:09.103Z,1.67
2023-02-18T10:46:45.607Z,1.20
2023-02-18T10:49:13.191Z,1.00
2023-02-18T10:51:48.328Z,1.53
2023-02-18T10:54:16.381Z,1.23
2023-02-18T10:56:51.304Z,1.37
2023-02-18T10:59:25.950Z,1.50
2023-02-18T11:02:02.535Z,0.90
2023-02-18T11:04:40.544Z,1.23
2023-02-18T11:07:19.982Z,1.30
2023-02-18T11:09:48.197Z,1.30
2023-02-18T11:12:18.307Z,1.33
2023-02-18T11:14:47.791Z,1.37
2023-02-18T11:17:29.027Z,1.50
2023-02-18T11:20:01.914Z,1.20
2023-02-18T11:22:30.883Z,1.50
2023-02-18T11:25:00.825Z,1.20
2023-02-18T11:27:31.966Z,1.40
2023-02-18T11:30:07.643Z,1.03
2023-02-18T11:32:36.240Z,1.20
2023-02-18T11:35:05.852Z,1.40
2023-02-18T11:37:34.010Z,1.23
2023-02-18T11:40:01.503Z,1.87
2023-02-18T11:42:29.454Z,1.40
2023-02-18T11:45:02.095Z,1.10
2023-02-18T11:47:38.137Z,1.50
2023-02-18T11:50:16.119Z,1.40
2023-02-18T11:52:48.091Z,1.33
2023-02-18T11:55:18.009Z,1.00
2023-02-18T11:57:56.242Z,1.00
2023-02-18T12:00:32.914Z,1.23
2023-02-18T12:03:01.049Z,1.60
2023-02-18T12:05:32.671Z,1.40
2023-02-18T12:08:02.236Z,0.97
2023-02-18T12:10:34.470Z,1.27
2023-02-18T12:13:07.975Z,1.13
2023-02-18T12:15:55.170Z,1.50
2023-02-18T12:18:42.905Z,1.40
2023-02-18T12:21:27.196Z,1.70
2023-02-18T12:24:13.611Z,1.17
2023-02-18T12:27:16.043Z,1.03
2023-02-18T12:29:46.974Z,1.30
2023-02-18T12:32:29.187Z,1.80
2023-02-18T12:35:23.159Z,1.37
2023-02-18T12:38:01.411Z,1.23
2023-02-18T12:40:45.900Z,1.00
2023-02-18T12:43:24.007Z,1.23
2023-02-18T12:45:54.667Z,1.20
2023-02-18T12:48:41.182Z,1.23
2023-02-18T12:51:14.347Z,1.10
2023-02-18T12:53:50.403Z,1.30
2023-02-18T12:56:17.986Z,1.47
2023-02-18T12:58:59.946Z,1.80
2023-02-18T13:01:30.726Z,1.27
2023-02-18T13:04:20.381Z,1.47
2023-02-18T13:07:02.346Z,1.20
2023-02-18T13:09:40.294Z,0.93
2023-02-18T13:12:29.617Z,1.10
2023-02-18T13:15:01.788Z,1.00
2023-02-18T13:17:34.753Z,1.17
2023-02-18T13:20:04.939Z,1.10
2023-02-18T13:22:34.450Z,1.10
2023-02-18T13:25:02.010Z,1.43
2023-02-18T13:27:29.594Z,1.30
2023-02-18T13:30:15.442Z,1.20
2023-02-18T13:32:52.197Z,1.20
2023-02-18T13:35:43.188Z,1.63
2023-02-18T13:38:27.889Z,1.30
2023-02-18T13:40:56.736Z,1.53
2023-02-18T13:43:34.077Z,1.13
2023-02-18T13:46:06.735Z,1.10
2023-02-18T13:48:59.148Z,1.10
2023-02-18T13:51:34.919Z,1.40
2023-02-18T13:54:08.627Z,1.10
2023-02-18T13:56:36.679Z,1.30
2023-02-18T13:59:06.376Z,1.40
2023-02-18T14:01:46.531Z,1.30
2023-02-18T14:04:33.048Z,1.60
2023-02-18T14:07:19.464Z,1.60
2023-02-18T14:09:47.266Z,0.97
2023-02-18T14:12:21.102Z,1.47
2023-02-18T14:14:52.387Z,1.10
2023-02-18T14:17:24.776Z,1.20
2023-02-18T14:20:01.669Z,1.30
2023-02-18T14:22:30.742Z,1.70
2023-02-18T14:25:19.098Z,1.40
2023-02-18T14:27:46.701Z,1.40
2023-02-18T14:30:17.362Z,1.13
2023-02-18T14:32:45.706Z,1.37
2023-02-18T14:35:32.630Z,1.30
2023-02-18T14:38:12.682Z,1.40
2023-02-18T14:40:46.492Z,1.23
2023-02-18T14:43:34.397Z,1.00
2023-02-18T14:46:22.062Z,1.30
2023-02-18T14:49:01.658Z,1.07
2023-02-18T14:51:31.975Z,1.10
2023-02-18T14:54:04.868Z,1.30
2023-02-18T14:56:33.477Z,1.67
2023-02-18T14:59:02.840Z,1.27
2023-02-18T15:01:32.221Z,1.33
2023-02-18T15:03:59.642Z,1.13
2023-02-18T15:06:37.253Z,1.23
2023-02-18T15:09:14.411Z,1.30
2023-02-18T15:11:45.182Z,1.20
2023-02-18T15:14:19.307Z,1.17
2023-02-18T15:16:47.515Z,1.10
2023-02-18T15:19:18.281Z,1.40
2023-02-18T15:21:47.380Z,1.20
2023-02-18T15:24:34.397Z,1.50
2023-02-18T15:27:13.862Z,1.10
2023-02-18T15:29:41.300Z,1.47
2023-02-18T15:32:16.948Z,1.27
2023-02-18T15:34:49.944Z,1.40
2023-02-18T15:37:17.307Z,1.40
2023-02-18T15:39:44.718Z,1.30
2023-02-18T15:42:18.097Z,1.20
2023-02-18T15:44:48.080Z,1.20
2023-02-18T15:47:17.530Z,1.83
2023-02-18T15:49:50.870Z,1.20
2023-02-18T15:52:23.792Z,1.10
2023-02-18T15:54:51.370Z,1.17
2023-02-18T15:57:20.220Z,1.47
2023-02-18T15:59:54.478Z,1.07
2023-02-18T16:02:23.508Z,1.87
2023-02-18T16:04:59.440Z,1.60
2023-02-18T16:07:37.756Z,1.27
2023-02-18T16:10:10.386Z,1.00
2023-02-18T16:12:38.989Z,1.47
2023-02-18T16:15:06.765Z,1.23
2023-02-18T16:17:34.190Z,1.07
2023-02-18T16:20:24.654Z,1.40
2023-02-18T16:22:53.463Z,1.23
2023-02-18T16:25:27.293Z,1.27
2023-02-18T16:28:06.278Z,1.30
2023-02-18T16:30:43.520Z,1.50
2023-02-18T16:33:13.886Z,1.27
2023-02-18T16:35:49.475Z,1.40
2023-02-18T16:38:22.144Z,1.30
2023-02-18T16:40:50.054Z,1.53
2023-02-18T16:43:18.785Z,1.17
2023-02-18T16:45:49.611Z,1.20
2023-02-18T16:48:23.483Z,1.03
2023-02-18T16:50:51.980Z,1.37
2023-02-18T16:53:20.178Z,1.47
2023-02-18T16:55:47.584Z,1.50
2023-02-18T16:58:14.846Z,1.80
2023-02-18T17:00:43.255Z,1.60
2023-02-18T17:03:11.177Z,1.60
2023-02-18T17:05:42.643Z,1.20
2023-02-18T17:08:16.553Z,1.37
2023-02-18T17:10:44.040Z,1.50
2023-02-18T17:13:17.210Z,1.37
2023-02-18T17:15:47.500Z,1.57
2023-02-18T17:18:17.842Z,1.40
2023-02-18T17:20:46.045Z,1.63
2023-02-18T17:23:17.412Z,1.80
2023-02-18T17:25:51.418Z,1.77
2023-02-18T17:28:21.787Z,1.70
2023-02-18T17:30:52.227Z,1.80
2023-02-18T17:33:21.262Z,1.80
2023-02-18T17:36:00.142Z,1.63
2023-02-18T17:38:33.137Z,1.43
2023-02-18T17:41:00.589Z,2.03
2023-02-18T17:43:30.791Z,2.03
2023-02-18T17:45:59.108Z,1.57
2023-02-18T17:48:27.054Z,1.40
2023-02-18T17:50:54.671Z,1.80
2023-02-18T17:53:22.489Z,1.73
2023-02-18T17:55:50.368Z,1.60
2023-02-18T17:58:18.255Z,1.77
2023-02-18T18:01:03.744Z,1.73
2023-02-18T18:03:31.335Z,1.60
2023-02-18T18:05:58.973Z,2.13
2023-02-18T18:08:26.290Z,1.67
2023-02-18T18:10:55.153Z,1.60
2023-02-18T18:13:26.651Z,1.90
2023-02-18T18:15:56.205Z,1.40
2023-02-18T18:18:24.898Z,1.70
2023-02-18T18:20:53.233Z,2.10
2023-02-18T18:23:21.719Z,2.20
2023-02-18T18:25:53.182Z,1.50
2023-02-18T18:28:20.479Z,2.27
2023-02-18T18:30:49.267Z,1.83
2023-02-18T18:33:19.657Z,2.03
2023-02-18T18:35:47.903Z,1.83
2023-02-18T18:38:17.862Z,2.00
2023-02-18T18:40:45.797Z,1.83
2023-02-18T18:43:20.880Z,2.10
2023-02-18T18:45:48.733Z,1.70
2023-02-18T18:48:16.517Z,1.83
2023-02-18T18:50:44.129Z,2.30
2023-02-18T18:53:20.212Z,1.70
2023-02-18T18:55:47.831Z,2.40
2023-02-18T18:58:20.544Z,2.53
2023-02-18T19:00:50.757Z,2.43
2023-02-18T19:03:18.280Z,2.03
2023-02-18T19:05:47.304Z,1.97
2023-02-18T19:08:17.892Z,2.20
2023-02-18T19:10:46.224Z,2.47
2023-02-18T19:13:22.570Z,1.60
2023-02-18T19:15:50.918Z,2.37
2023-02-18T19:18:19.392Z,2.30
2023-02-18T19:20:47.465Z,2.10
2023-02-18T19:23:15.011Z,1.90
2023-02-18T19:25:42.793Z,2.03
2023-02-18T19:28:13.788Z,2.27
2023-02-18T19:30:44.265Z,2.20
2023-02-18T19:33:13.427Z,1.97
2023-02-18T19:35:41.629Z,2.53
2023-02-18T19:38:13.345Z,2.30
2023-02-18T19:40:40.726Z,2.17
2023-02-18T19:43:08.468Z,2.10
2023-02-18T19:45:36.051Z,1.77
2023-02-18T19:48:03.777Z,2.37
2023-02-18T19:50:31.295Z,2.50
2023-02-18T19:52:59.240Z,1.97
2023-02-18T19:55:26.689Z,1.90
2023-02-18T19:57:54.222Z,2.33
2023-02-18T20:00:22.803Z,2.83
2023-02-18T20:02:50.490Z,1.87
2023-02-18T20:05:18.395Z,1.83
2023-02-18T20:07:46.816Z,1.97
2023-02-18T20:10:15.655Z,2.10
2023-02-18T20:12:43.141Z,2.10
2023-02-18T20:15:10.846Z,2.30
2023-02-18T20:17:39.472Z,2.40
2023-02-18T20:20:07.660Z,1.80
2023-02-18T20:22:35.018Z,2.13
2023-02-18T20:25:02.339Z,1.93
2023-02-18T20:27:29.731Z,2.30
2023-02-18T20:29:57.327Z,2.80
2023-02-18T20:32:24.844Z,2.00
2023-02-18T20:34:52.264Z,2.47
2023-02-18T20:37:19.578Z,2.17
2023-02-18T20:39:46.989Z,1.90
2023-02-18T20:42:17.130Z,1.97
2023-02-18T20:44:45.105Z,2.27
2023-02-18T20:47:17.144Z,1.83
2023-02-18T20:49:46.642Z,2.00
2023-02-18T20:52:14.661Z,1.80
2023-02-18T20:54:42.698Z,2.17
2023-02-18T20:57:10.306Z,2.03
2023-02-18T20:59:38.246Z,2.13
2023-02-18T21:02:05.982Z,1.90
2023-02-18T21:04:33.470Z,2.00
2023-02-18T21:07:00.826Z,2.03
2023-02-18T21:09:28.293Z,2.03
2023-02-18T21:11:55.744Z,1.40
2023-02-18T21:14:24.920Z,1.67
2023-02-18T21:16:52.329Z,1.73
2023-02-18T21:19:20.007Z,2.10
2023-02-18T21:21:47.640Z,1.90
2023-02-18T21:24:16.319Z,1.70
2023-02-18T21:26:43.747Z,2.27
2023-02-18T21:29:11.438Z,1.43
2023-02-18T21:31:40.128Z,2.23
2023-02-18T21:34:08.421Z,1.97
2023-02-18T21:36:35.800Z,2.23
2023-02-18T21:39:04.863Z,2.07
2023-02-18T21:41:33.810Z,2.03
2023-02-18T21:44:01.155Z,2.30
2023-02-18T21:46:30.799Z,2.00
2023-02-18T21:49:02.296Z,2.73
2023-02-18T21:51:50.636Z,1.80
2023-02-18T21:54:19.342Z,2.03
2023-02-18T21:56:46.698Z,1.70
2023-02-18T21:59:14.082Z,2.00
2023-02-18T22:01:41.694Z,2.20
2023-02-18T22:04:09.264Z,2.63
2023-02-18T22:06:36.731Z,2.00
2023-02-18T22:09:05.353Z,2.03
2023-02-18T22:11:33.677Z,2.60
2023-02-18T22:14:01.186Z,1.80
2023-02-18T22:16:29.194Z,2.00
2023-02-18T22:18:57.654Z,2.07
2023-02-18T22:21:25.086Z,2.00
2023-02-18T22:23:52.698Z,2.30
2023-02-18T22:26:20.710Z,2.23
2023-02-18T22:28:52.389Z,2.07
2023-02-18T22:31:20.000Z,2.03
2023-02-18T22:33:51.347Z,1.87
2023-02-18T22:36:19.746Z,1.80
2023-02-18T22:38:47.703Z,1.80
2023-02-18T22:41:15.989Z,1.70
2023-02-18T22:43:43.701Z,1.87
2023-02-18T22:46:12.422Z,1.67
2023-02-18T22:48:40.385Z,1.80
2023-02-18T22:51:34.283Z,1.93
2023-02-18T22:54:02.050Z,1.60
2023-02-18T22:56:33.246Z,1.70
2023-02-18T22:59:00.624Z,1.90
2023-02-18T23:01:31.264Z,1.63
2023-02-18T23:03:59.759Z,2.03
2023-02-18T23:06:29.882Z,1.80
2023-02-18T23:08:57.383Z,2.10
2023-02-18T23:11:24.766Z,2.33
2023-02-18T23:14:10.779Z,1.67
2023-02-18T23:16:57.304Z,1.60
2023-02-18T23:19:26.073Z,1.93
2023-02-18T23:21:53.419Z,1.70
2023-02-18T23:24:21.185Z,1.30
2023-02-18T23:26:48.565Z,1.80
2023-02-18T23:29:16.668Z,1.60
2023-02-18T23:31:44.432Z,1.80
2023-02-18T23:34:13.979Z,1.60
2023-02-18T23:36:41.437Z,1.77
2023-02-18T23:39:09.647Z,1.37
2023-02-18T23:41:37.368Z,1.47
2023-02-18T23:44:05.421Z,1.90
2023-02-18T23:46:33.462Z,2.17
2023-02-18T23:49:01.318Z,1.63
2023-02-18T23:51:29.831Z,1.73
2023-02-18T23:54:02.519Z,1.67
2023-02-18T23:56:30.245Z,2.27
2023-02-18T23:59:00.557Z,2.47
